createdAt,value
2022-12-25T00:01:50.671Z,5.90
2022-12-25T00:04:20.132Z,5.90
2022-12-25T00:06:48.114Z,5.80
2022-12-25T00:09:16.171Z,5.80
2022-12-25T00:11:44.245Z,5.80
2022-12-25T00:14:12.294Z,5.80
2022-12-25T00:16:40.584Z,5.80
2022-12-25T00:19:08.614Z,5.80
2022-12-25T00:21:37.963Z,5.80
2022-12-25T00:24:06.351Z,5.80
2022-12-25T00:26:34.372Z,5.70
2022-12-25T00:29:02.375Z,5.70
2022-12-25T00:31:30.506Z,5.70
2022-12-25T00:33:58.989Z,5.70
2022-12-25T00:36:27.009Z,5.60
2022-12-25T00:38:56.429Z,5.60
2022-12-25T00:41:39.159Z,5.60
2022-12-25T00:44:07.308Z,5.50
2022-12-25T00:46:35.457Z,5.50
2022-12-25T00:49:03.783Z,5.50
2022-12-25T00:51:31.894Z,5.50
2022-12-25T00:54:01.401Z,5.40
2022-12-25T00:56:29.691Z,5.40
2022-12-25T00:58:57.798Z,5.30
2022-12-25T01:01:25.877Z,5.30
2022-12-25T01:03:53.937Z,5.30
2022-12-25T01:06:21.946Z,5.30
2022-12-25T01:09:03.862Z,5.30
2022-12-25T01:11:33.393Z,5.20
2022-12-25T01:14:01.455Z,5.20
2022-12-25T01:16:29.996Z,5.30
2022-12-25T01:18:58.065Z,5.30
2022-12-25T01:21:26.436Z,5.40
2022-12-25T01:23:55.066Z,5.50
2022-12-25T01:26:24.701Z,5.50
2022-12-25T01:28:54.763Z,5.50
2022-12-25T01:31:25.306Z,5.50
2022-12-25T01:33:53.461Z,5.50
2022-12-25T01:36:23.711Z,5.40
2022-12-25T01:38:52.291Z,5.40
2022-12-25T01:41:22.733Z,5.30
2022-12-25T01:44:04.472Z,5.30
2022-12-25T01:46:33.080Z,5.20
2022-12-25T01:49:05.397Z,5.20
2022-12-25T01:51:39.990Z,5.10
2022-12-25T01:54:13.189Z,5.20
2022-12-25T01:56:43.600Z,5.20
2022-12-25T01:59:15.211Z,5.30
2022-12-25T02:01:43.509Z,5.30
2022-12-25T02:04:21.051Z,5.30
2022-12-25T02:06:51.021Z,5.30
2022-12-25T02:09:19.598Z,5.30
2022-12-25T02:12:00.245Z,5.30
2022-12-25T02:14:34.095Z,5.40
2022-12-25T02:17:08.375Z,5.30
2022-12-25T02:19:53.724Z,5.30
2022-12-25T02:22:32.122Z,5.30
2022-12-25T02:25:18.627Z,5.30
2022-12-25T02:28:10.398Z,5.30
2022-12-25T02:30:43.671Z,5.30
2022-12-25T02:33:35.034Z,5.20
2022-12-25T02:36:08.420Z,5.20
2022-12-25T02:39:00.360Z,5.10
2022-12-25T02:41:34.671Z,5.10
2022-12-25T02:44:25.127Z,5.10
2022-12-25T02:47:11.180Z,5.10
2022-12-25T02:49:57.349Z,5.10
2022-12-25T02:52:45.692Z,5.10
2022-12-25T02:55:36.550Z,5.00
2022-12-25T02:58:27.708Z,4.90
2022-12-25T03:01:19.591Z,4.90
2022-12-25T03:04:08.481Z,4.90
2022-12-25T03:06:55.176Z,4.90
2022-12-25T03:09:45.937Z,4.90
2022-12-25T03:12:21.197Z,4.90
2022-12-25T03:15:07.273Z,5.00
2022-12-25T03:17:37.180Z,5.10
2022-12-25T03:20:24.236Z,5.10
2022-12-25T03:23:10.268Z,5.10
2022-12-25T03:25:55.920Z,5.10
2022-12-25T03:28:25.675Z,5.10
2022-12-25T03:31:13.811Z,5.10
2022-12-25T03:34:25.737Z,5.20
2022-12-25T03:37:22.681Z,5.20
2022-12-25T03:40:15.240Z,5.20
2022-12-25T03:43:23.749Z,5.20
2022-12-25T03:46:13.643Z,5.20
2022-12-25T03:49:03.934Z,5.20
2022-12-25T03:51:56.084Z,5.30
2022-12-25T03:54:45.465Z,5.20
2022-12-25T03:57:33.009Z,5.30
2022-12-25T04:00:23.788Z,5.30
2022-12-25T04:03:09.536Z,5.30
2022-12-25T04:05:54.957Z,5.30
2022-12-25T04:08:41.627Z,5.30
2022-12-25T04:11:27.536Z,5.30
2022-12-25T04:14:13.117Z,5.30
2022-12-25T04:16:58.481Z,5.30
2022-12-25T04:19:43.875Z,5.30
2022-12-25T04:22:29.447Z,5.30
2022-12-25T04:25:16.174Z,5.20
2022-12-25T04:28:01.500Z,5.30
2022-12-25T04:30:46.769Z,5.30
2022-12-25T04:33:32.141Z,5.30
2022-12-25T04:36:12.365Z,5.40
2022-12-25T04:38:41.651Z,5.40
2022-12-25T04:41:13.040Z,5.40
2022-12-25T04:43:41.288Z,5.40
2022-12-25T04:46:09.331Z,5.40
2022-12-25T04:48:37.818Z,5.40
2022-12-25T04:51:15.464Z,5.40
2022-12-25T04:53:44.316Z,5.50
2022-12-25T04:56:18.643Z,5.50
2022-12-25T04:58:47.384Z,5.50
2022-12-25T05:01:15.565Z,5.50
2022-12-25T05:03:43.761Z,5.40
2022-12-25T05:06:12.359Z,5.40
2022-12-25T05:08:40.358Z,5.40
2022-12-25T05:11:09.672Z,5.40
2022-12-25T05:13:39.518Z,5.40
2022-12-25T05:16:08.739Z,5.50
2022-12-25T05:18:36.960Z,5.50
2022-12-25T05:21:05.537Z,5.40
2022-12-25T05:23:34.756Z,5.40
2022-12-25T05:26:05.803Z,5.50
2022-12-25T05:28:35.415Z,5.50
2022-12-25T05:31:04.884Z,5.50
2022-12-25T05:33:32.995Z,5.50
2022-12-25T05:36:03.625Z,5.50
2022-12-25T05:38:31.815Z,5.50
2022-12-25T05:40:59.827Z,5.40
2022-12-25T05:43:28.304Z,5.40
2022-12-25T05:45:56.494Z,5.40
2022-12-25T05:48:25.867Z,5.40
2022-12-25T05:50:53.885Z,5.40
2022-12-25T05:53:21.882Z,5.40
2022-12-25T05:55:49.903Z,5.40
2022-12-25T05:58:17.875Z,5.50
2022-12-25T06:00:45.980Z,5.50
2022-12-25T06:03:14.071Z,5.40
2022-12-25T06:05:43.549Z,5.40
2022-12-25T06:08:11.547Z,5.50
2022-12-25T06:10:39.554Z,5.50
2022-12-25T06:13:07.570Z,5.50
2022-12-25T06:15:35.621Z,5.50
2022-12-25T06:18:03.829Z,5.60
2022-12-25T06:20:31.879Z,5.60
2022-12-25T06:23:01.935Z,5.70
2022-12-25T06:25:29.932Z,5.70
2022-12-25T06:27:57.939Z,5.70
2022-12-25T06:30:25.978Z,5.70
2022-12-25T06:32:53.988Z,5.70
2022-12-25T06:35:22.021Z,5.70
2022-12-25T06:37:50.034Z,5.60
2022-12-25T06:40:19.702Z,5.60
2022-12-25T06:42:47.756Z,5.70
2022-12-25T06:45:15.954Z,5.70
2022-12-25T06:47:45.891Z,5.80
2022-12-25T06:50:14.079Z,5.80
2022-12-25T06:52:42.090Z,5.90
2022-12-25T06:55:10.879Z,5.90
2022-12-25T06:57:40.262Z,5.90
2022-12-25T07:00:10.101Z,5.90
2022-12-25T07:02:38.482Z,5.90
2022-12-25T07:05:07.544Z,5.90
2022-12-25T07:07:35.541Z,6.00
2022-12-25T07:10:03.532Z,6.00
2022-12-25T07:12:31.572Z,6.00
2022-12-25T07:15:00.919Z,6.10
2022-12-25T07:17:28.937Z,6.10
2022-12-25T07:19:57.192Z,6.10
2022-12-25T07:22:25.251Z,6.10
2022-12-25T07:24:53.302Z,6.20
2022-12-25T07:27:21.322Z,6.10
2022-12-25T07:29:49.339Z,6.20
2022-12-25T07:32:18.706Z,6.10
2022-12-25T07:34:46.736Z,6.20
2022-12-25T07:37:14.751Z,6.20
2022-12-25T07:39:42.751Z,6.20
2022-12-25T07:42:10.742Z,6.20
2022-12-25T07:44:39.136Z,6.30
2022-12-25T07:47:07.170Z,6.30
2022-12-25T07:49:37.446Z,6.30
2022-12-25T07:52:05.899Z,6.30
2022-12-25T07:54:33.913Z,6.30
2022-12-25T07:57:01.895Z,6.30
2022-12-25T07:59:29.951Z,6.30
2022-12-25T08:01:58.095Z,6.30
2022-12-25T08:04:26.211Z,6.30
2022-12-25T08:06:55.658Z,6.30
2022-12-25T08:09:23.829Z,6.30
2022-12-25T08:11:51.826Z,6.40
2022-12-25T08:14:19.845Z,6.40
2022-12-25T08:16:47.946Z,6.50
2022-12-25T08:19:16.011Z,6.40
2022-12-25T08:21:44.108Z,6.40
2022-12-25T08:24:13.600Z,6.60
2022-12-25T08:26:41.584Z,6.60
2022-12-25T08:29:09.575Z,6.60
2022-12-25T08:31:44.150Z,6.50
2022-12-25T08:34:17.760Z,6.50
2022-12-25T08:36:45.751Z,6.50
2022-12-25T08:39:15.209Z,6.50
2022-12-25T08:41:43.292Z,6.50
2022-12-25T08:44:13.098Z,6.50
2022-12-25T08:46:41.223Z,6.60
2022-12-25T08:49:09.591Z,6.60
2022-12-25T08:51:37.673Z,6.60
2022-12-25T08:54:06.248Z,6.70
2022-12-25T08:56:36.540Z,6.70
2022-12-25T08:59:04.568Z,6.70
2022-12-25T09:01:32.743Z,6.80
2022-12-25T09:04:00.788Z,6.70
2022-12-25T09:06:28.845Z,6.80
2022-12-25T09:08:56.939Z,6.90
2022-12-25T09:11:24.951Z,6.90
2022-12-25T09:13:54.300Z,6.90
2022-12-25T09:16:23.957Z,6.90
2022-12-25T09:18:52.123Z,6.90
2022-12-25T09:21:20.271Z,7.00
2022-12-25T09:23:48.617Z,7.00
2022-12-25T09:26:18.839Z,6.90
2022-12-25T09:28:51.982Z,6.90
2022-12-25T09:31:23.369Z,7.00
2022-12-25T09:33:51.875Z,7.00
2022-12-25T09:36:21.355Z,7.00
2022-12-25T09:38:49.520Z,7.00
2022-12-25T09:41:23.255Z,7.00
2022-12-25T09:43:53.987Z,7.10
2022-12-25T09:46:34.828Z,7.10
2022-12-25T09:49:09.346Z,7.10
2022-12-25T09:51:41.950Z,7.10
2022-12-25T09:54:18.115Z,7.10
2022-12-25T09:56:46.223Z,7.20
2022-12-25T09:59:22.199Z,7.20
2022-12-25T10:02:16.851Z,7.10
2022-12-25T10:05:05.224Z,7.20
2022-12-25T10:07:42.727Z,7.20
2022-12-25T10:10:34.175Z,7.20
2022-12-25T10:13:10.285Z,7.20
2022-12-25T10:15:47.986Z,7.20
2022-12-25T10:18:38.525Z,7.20
2022-12-25T10:21:13.317Z,7.20
2022-12-25T10:23:44.285Z,7.20
2022-12-25T10:26:17.270Z,7.20
2022-12-25T10:28:47.960Z,7.20
2022-12-25T10:31:21.104Z,7.30
2022-12-25T10:33:52.735Z,7.30
2022-12-25T10:36:23.212Z,7.30
2022-12-25T10:38:51.777Z,7.30
2022-12-25T10:41:34.210Z,7.30
2022-12-25T10:44:12.526Z,7.30
2022-12-25T10:46:41.708Z,7.40
2022-12-25T10:49:16.402Z,7.40
2022-12-25T10:51:44.450Z,7.40
2022-12-25T10:54:24.766Z,7.40
2022-12-25T10:57:01.339Z,7.30
2022-12-25T10:59:31.355Z,7.30
2022-12-25T11:02:15.088Z,7.40
2022-12-25T11:04:44.608Z,7.50
2022-12-25T11:07:23.396Z,7.50
2022-12-25T11:09:53.900Z,7.50
2022-12-25T11:12:30.319Z,7.50
2022-12-25T11:15:01.215Z,7.50
2022-12-25T11:17:29.404Z,7.50
2022-12-25T11:20:00.792Z,7.50
2022-12-25T11:22:29.598Z,7.50
2022-12-25T11:24:58.770Z,7.50
2022-12-25T11:27:28.863Z,7.50
2022-12-25T11:30:00.239Z,7.50
2022-12-25T11:32:33.901Z,7.60
2022-12-25T11:35:04.367Z,7.60
2022-12-25T11:37:39.323Z,7.60
2022-12-25T11:40:14.753Z,7.60
2022-12-25T11:42:46.954Z,7.70
2022-12-25T11:45:19.402Z,7.60
2022-12-25T11:47:50.945Z,7.70
2022-12-25T11:50:28.215Z,7.60
2022-12-25T11:52:57.079Z,7.60
2022-12-25T11:55:32.556Z,7.70
2022-12-25T11:58:07.167Z,7.70
2022-12-25T12:00:36.942Z,7.80
2022-12-25T12:03:10.651Z,7.80
2022-12-25T12:05:46.362Z,7.70
2022-12-25T12:08:15.543Z,7.70
2022-12-25T12:10:58.790Z,7.70
2022-12-25T12:13:36.676Z,7.70
2022-12-25T12:16:05.992Z,7.70
2022-12-25T12:18:35.388Z,7.70
2022-12-25T12:21:09.064Z,7.70
2022-12-25T12:23:51.723Z,7.70
2022-12-25T12:26:21.537Z,7.70
2022-12-25T12:28:51.537Z,7.70
2022-12-25T12:31:19.953Z,7.70
2022-12-25T12:33:54.354Z,7.80
2022-12-25T12:36:35.797Z,7.70
2022-12-25T12:39:06.200Z,7.80
2022-12-25T12:41:47.704Z,7.80
2022-12-25T12:44:18.257Z,7.80
2022-12-25T12:46:54.410Z,7.80
2022-12-25T12:49:24.997Z,7.80
2022-12-25T12:52:06.841Z,7.90
2022-12-25T12:54:49.731Z,7.80
2022-12-25T12:57:26.857Z,7.80
2022-12-25T12:59:54.912Z,7.80
2022-12-25T13:03:02.665Z,7.80
2022-12-25T13:05:40.121Z,7.90
2022-12-25T13:08:21.753Z,7.90
2022-12-25T13:10:51.589Z,7.80
2022-12-25T13:13:23.824Z,7.90
2022-12-25T13:15:52.869Z,7.90
2022-12-25T13:18:21.937Z,7.90
2022-12-25T13:20:55.059Z,7.90
2022-12-25T13:23:32.398Z,7.90
2022-12-25T13:26:03.029Z,8.00
2022-12-25T13:28:33.741Z,8.00
2022-12-25T13:31:08.223Z,8.00
2022-12-25T13:33:36.524Z,8.00
2022-12-25T13:36:05.863Z,8.00
2022-12-25T13:38:35.467Z,8.00
2022-12-25T13:41:21.116Z,8.00
2022-12-25T13:43:50.417Z,8.00
2022-12-25T13:46:28.018Z,8.00
2022-12-25T13:49:00.505Z,8.00
2022-12-25T13:51:30.707Z,8.00
2022-12-25T13:54:07.070Z,8.00
2022-12-25T13:56:36.191Z,8.00
2022-12-25T13:59:04.861Z,8.00
2022-12-25T14:01:33.040Z,7.90
2022-12-25T14:04:01.287Z,7.90
2022-12-25T14:06:31.281Z,8.00
2022-12-25T14:09:00.598Z,7.90
2022-12-25T14:11:32.154Z,7.90
2022-12-25T14:14:03.293Z,7.90
2022-12-25T14:16:31.500Z,7.90
2022-12-25T14:19:01.568Z,7.90
2022-12-25T14:21:32.693Z,7.90
2022-12-25T14:24:01.269Z,7.90
2022-12-25T14:26:32.963Z,7.90
2022-12-25T14:29:16.933Z,7.80
2022-12-25T14:31:46.891Z,7.90
2022-12-25T14:34:18.764Z,7.80
2022-12-25T14:36:47.127Z,7.90
2022-12-25T14:39:31.833Z,7.90
2022-12-25T14:42:03.600Z,7.90
2022-12-25T14:44:36.390Z,7.90
2022-12-25T14:47:06.532Z,7.90
2022-12-25T14:49:34.590Z,7.90
2022-12-25T14:52:09.348Z,7.90
2022-12-25T14:54:38.129Z,7.90
2022-12-25T14:57:07.616Z,7.90
2022-12-25T14:59:35.833Z,7.90
2022-12-25T15:02:04.321Z,7.90
2022-12-25T15:04:32.559Z,7.90
2022-12-25T15:07:07.044Z,7.90
2022-12-25T15:09:35.976Z,7.90
2022-12-25T15:12:04.336Z,7.90
2022-12-25T15:14:36.335Z,7.90
2022-12-25T15:17:04.433Z,7.90
2022-12-25T15:19:38.276Z,7.90
2022-12-25T15:22:07.163Z,7.90
2022-12-25T15:24:35.299Z,7.90
2022-12-25T15:27:05.352Z,7.90
2022-12-25T15:32:25.100Z,7.90
2022-12-25T15:34:53.884Z,7.80
2022-12-25T15:37:21.965Z,7.80
2022-12-25T15:39:49.978Z,7.80
2022-12-25T15:42:19.872Z,7.80
2022-12-25T15:44:49.235Z,7.80
2022-12-25T15:47:19.954Z,7.80
2022-12-25T15:49:47.998Z,7.80
2022-12-25T15:52:18.033Z,7.80
2022-12-25T15:54:46.065Z,7.80
2022-12-25T15:57:18.812Z,7.80
2022-12-25T15:59:47.016Z,7.80
2022-12-25T16:02:18.809Z,7.80
2022-12-25T16:04:47.133Z,7.80
2022-12-25T16:07:16.662Z,7.80
2022-12-25T16:09:44.839Z,7.80
2022-12-25T16:12:12.991Z,7.80
2022-12-25T16:14:41.040Z,7.80
2022-12-25T16:17:12.408Z,7.70
2022-12-25T16:19:41.831Z,7.80
2022-12-25T16:22:12.951Z,7.80
2022-12-25T16:24:41.210Z,7.80
2022-12-25T16:27:09.215Z,7.80
2022-12-25T16:29:37.278Z,7.80
2022-12-25T16:32:05.733Z,7.80
2022-12-25T16:34:33.778Z,7.80
2022-12-25T16:37:03.248Z,7.80
2022-12-25T16:39:31.255Z,7.70
2022-12-25T16:41:59.323Z,7.80
2022-12-25T16:44:27.390Z,7.80
2022-12-25T16:46:55.492Z,7.80
2022-12-25T16:49:25.926Z,7.70
2022-12-25T16:51:53.975Z,8.00
2022-12-25T16:54:23.331Z,7.80
2022-12-25T16:56:51.782Z,7.80
2022-12-25T16:59:19.821Z,7.80
2022-12-25T17:01:47.979Z,7.80
2022-12-25T17:04:16.277Z,7.80
2022-12-25T17:06:44.265Z,7.80
2022-12-25T17:09:12.284Z,7.90
2022-12-25T17:11:41.827Z,7.80
2022-12-25T17:14:11.317Z,7.80
2022-12-25T17:16:40.411Z,7.80
2022-12-25T17:19:13.530Z,7.80
2022-12-25T17:21:41.562Z,7.80
2022-12-25T17:24:10.417Z,7.80
2022-12-25T17:26:40.639Z,7.80
2022-12-25T17:29:10.359Z,7.80
2022-12-25T17:31:39.435Z,7.80
2022-12-25T17:34:08.996Z,7.80
2022-12-25T17:36:37.519Z,7.80
2022-12-25T17:39:07.267Z,7.80
2022-12-25T17:41:35.280Z,7.80
2022-12-25T17:44:03.572Z,7.80
2022-12-25T17:46:33.523Z,7.80
2022-12-25T17:49:02.298Z,7.80
2022-12-25T17:51:31.898Z,7.80
2022-12-25T17:54:03.071Z,7.80
2022-12-25T17:56:31.602Z,7.80
2022-12-25T17:59:03.472Z,7.80
2022-12-25T18:01:33.241Z,7.80
2022-12-25T18:04:01.599Z,7.80
2022-12-25T18:06:30.024Z,7.90
2022-12-25T18:08:59.540Z,8.10
2022-12-25T18:11:32.834Z,8.10
2022-12-25T18:14:03.383Z,8.10
2022-12-25T18:16:34.903Z,8.20
2022-12-25T18:19:03.234Z,8.20
2022-12-25T18:21:31.866Z,8.20
2022-12-25T18:23:59.980Z,8.10
2022-12-25T18:26:28.779Z,8.00
2022-12-25T18:28:57.421Z,7.90
2022-12-25T18:31:30.114Z,7.90
2022-12-25T18:34:00.295Z,8.10
2022-12-25T18:36:29.573Z,8.00
2022-12-25T18:38:58.444Z,7.90
2022-12-25T18:41:27.954Z,7.90
2022-12-25T18:43:56.332Z,7.80
2022-12-25T18:46:26.105Z,7.90
2022-12-25T18:48:54.537Z,7.80
2022-12-25T18:51:24.146Z,7.90
2022-12-25T18:53:52.200Z,8.00
2022-12-25T18:56:20.936Z,8.20
2022-12-25T18:58:49.549Z,8.30
2022-12-25T19:01:19.783Z,8.30
2022-12-25T19:03:49.128Z,8.40
2022-12-25T19:06:18.716Z,8.40
2022-12-25T19:08:48.303Z,8.30
2022-12-25T19:11:16.842Z,8.10
2022-12-25T19:13:45.352Z,8.00
2022-12-25T19:16:13.956Z,7.90
2022-12-25T19:18:42.031Z,7.90
2022-12-25T19:21:10.521Z,7.90
2022-12-25T19:23:38.729Z,7.90
2022-12-25T19:26:09.189Z,7.80
2022-12-25T19:28:37.924Z,7.80
2022-12-25T19:31:07.508Z,7.80
2022-12-25T19:33:38.304Z,7.80
2022-12-25T19:36:08.382Z,7.70
2022-12-25T19:38:37.241Z,7.70
2022-12-25T19:41:08.839Z,7.80
2022-12-25T19:43:38.625Z,7.80
2022-12-25T19:46:07.584Z,7.70
2022-12-25T19:48:36.439Z,7.70
2022-12-25T19:51:04.631Z,7.80
2022-12-25T19:53:32.975Z,7.70
2022-12-25T19:56:02.900Z,7.90
2022-12-25T19:58:32.355Z,7.80
2022-12-25T20:01:01.917Z,7.80
2022-12-25T20:03:30.250Z,7.80
2022-12-25T20:05:58.383Z,7.80
2022-12-25T20:08:26.568Z,7.80
2022-12-25T20:10:55.085Z,7.70
2022-12-25T20:13:23.287Z,7.70
2022-12-25T20:15:52.735Z,7.60
2022-12-25T20:18:20.794Z,7.80
2022-12-25T20:20:48.921Z,7.80
2022-12-25T20:23:16.906Z,7.90
2022-12-25T20:25:44.907Z,8.00
2022-12-25T20:28:13.419Z,8.10
2022-12-25T20:30:41.468Z,7.90
2022-12-25T20:33:11.173Z,7.90
2022-12-25T20:35:39.190Z,8.00
2022-12-25T20:38:07.171Z,8.00
2022-12-25T20:41:00.102Z,7.90
2022-12-25T20:43:25.182Z,7.80
2022-12-25T20:45:53.449Z,8.00
2022-12-25T20:48:23.164Z,7.90
2022-12-25T20:50:51.315Z,7.80
2022-12-25T20:53:20.056Z,7.70
2022-12-25T20:55:49.100Z,7.70
2022-12-25T20:58:18.591Z,7.70
2022-12-25T21:00:46.764Z,7.60
2022-12-25T21:03:14.826Z,7.70
2022-12-25T21:05:50.849Z,7.70
2022-12-25T21:08:19.266Z,7.60
2022-12-25T21:10:50.452Z,7.70
2022-12-25T21:13:19.142Z,7.80
2022-12-25T21:15:48.164Z,7.70
2022-12-25T21:18:16.338Z,7.60
2022-12-25T21:20:48.683Z,7.60
2022-12-25T21:23:17.283Z,7.50
2022-12-25T21:25:46.075Z,7.50
2022-12-25T21:28:14.437Z,7.50
2022-12-25T21:30:43.263Z,7.50
2022-12-25T21:33:30.586Z,7.40
2022-12-25T21:36:06.158Z,7.40
2022-12-25T21:38:34.410Z,7.40
2022-12-25T21:41:06.907Z,7.40
2022-12-25T21:43:35.585Z,7.30
2022-12-25T21:46:05.397Z,7.30
2022-12-25T21:48:34.843Z,7.30
2022-12-25T21:51:22.318Z,7.30
2022-12-25T21:53:50.322Z,7.30
2022-12-25T21:56:18.473Z,7.40
2022-12-25T21:58:47.131Z,7.50
2022-12-25T22:01:16.802Z,7.60
2022-12-25T22:03:45.223Z,7.70
2022-12-25T22:06:32.035Z,7.70
2022-12-25T22:09:00.128Z,7.80
2022-12-25T22:11:45.808Z,7.70
2022-12-25T22:14:50.113Z,7.50
2022-12-25T22:17:41.808Z,7.70
2022-12-25T22:20:12.565Z,7.70
2022-12-25T22:22:42.010Z,7.70
2022-12-25T22:25:10.850Z,7.80
2022-12-25T22:27:40.491Z,7.90
2022-12-25T22:30:11.761Z,7.90
2022-12-25T22:32:39.929Z,7.80
2022-12-25T22:35:08.573Z,7.60
2022-12-25T22:37:37.079Z,7.50
2022-12-25T22:40:08.214Z,7.40
2022-12-25T22:42:36.344Z,7.70
2022-12-25T22:45:05.637Z,7.80
2022-12-25T22:47:33.770Z,7.80
2022-12-25T22:50:01.808Z,7.80
2022-12-25T22:52:29.910Z,7.80
2022-12-25T22:54:58.070Z,7.80
2022-12-25T22:57:27.452Z,7.70
2022-12-25T22:59:55.564Z,7.70
2022-12-25T23:02:23.900Z,7.70
2022-12-25T23:04:52.035Z,7.80
2022-12-25T23:07:21.200Z,7.70
2022-12-25T23:09:49.338Z,7.70
2022-12-25T23:12:31.373Z,7.60
2022-12-25T23:15:00.901Z,7.50
2022-12-25T23:17:46.450Z,7.60
2022-12-25T23:20:33.830Z,7.60
2022-12-25T23:23:19.432Z,7.60
2022-12-25T23:26:05.375Z,7.80
2022-12-25T23:28:50.867Z,7.80
2022-12-25T23:31:23.367Z,7.80
2022-12-25T23:33:51.492Z,7.90
2022-12-25T23:36:19.656Z,7.80
2022-12-25T23:38:47.744Z,7.90
2022-12-25T23:41:15.767Z,7.80
2022-12-25T23:43:43.803Z,7.60
2022-12-25T23:46:11.875Z,7.80
2022-12-25T23:48:41.259Z,7.70
2022-12-25T23:51:09.342Z,7.60
2022-12-25T23:53:37.477Z,7.50
2022-12-25T23:56:06.578Z,7.70
2022-12-25T23:58:34.899Z,7.50
